Time;durP1;ratioP1;P1;durP2;ratioP2;P2;SDS_P1;SDS_P2;PMS_P1;PMS_P2;Temp;Humidity;BMP_temperature;BMP_pressure;BME280_temperature;BME280_humidity;BME280_pressure;Samples;Min_cycle;Max_cycle;Signal;HPM_P1;HPM_P2
2022/09/27 00:01:10;;;;;;;20.65;2.95;;;14.20;99.90;;;;;;4964557;29;20023;-84
2022/09/27 00:03:36;;;;;;;23.45;3.85;;;14.20;99.90;;;;;;4964511;29;20141;-84
2022/09/27 00:06:13;;;;;;;15.73;3.58;;;14.10;99.90;;;;;;4964455;28;20405;-83
2022/09/27 00:08:39;;;;;;;19.33;3.40;;;14.10;99.90;;;;;;4961889;29;20070;-83
2022/09/27 00:11:08;;;;;;;16.48;3.10;;;14.00;99.90;;;;;;4964491;29;20019;-84
2022/09/27 00:13:34;;;;;;;22.85;3.33;;;14.00;99.90;;;;;;4949129;29;20027;-83
2022/09/27 00:16:04;;;;;;;17.38;2.78;;;14.00;99.90;;;;;;4964187;29;20367;-83
2022/09/27 00:18:30;;;;;;;22.00;3.60;;;14.00;99.90;;;;;;4964113;29;20015;-83
2022/09/27 00:21:02;;;;;;;16.67;2.83;;;13.90;99.90;;;;;;4963526;29;20066;-83
2022/09/27 00:23:28;;;;;;;14.00;3.10;;;14.00;99.90;;;;;;4962551;29;20424;-83
2022/09/27 00:25:56;;;;;;;16.63;3.05;;;14.00;99.90;;;;;;4962569;29;20027;-82
2022/09/27 00:28:22;;;;;;;20.88;3.65;;;13.90;99.90;;;;;;4962880;29;20031;-83
2022/09/27 00:30:48;;;;;;;17.00;2.95;;;13.90;99.90;;;;;;4962686;29;20038;-83
2022/09/27 00:33:14;;;;;;;20.75;3.45;;;13.90;99.90;;;;;;4962574;29;20027;-83
2022/09/27 00:35:39;;;;;;;18.52;2.90;;;13.90;99.90;;;;;;4962569;29;20314;-83
2022/09/27 00:38:05;;;;;;;20.95;3.00;;;13.90;99.90;;;;;;4962939;29;20266;-83
2022/09/27 00:40:31;;;;;;;18.92;3.35;;;13.90;99.90;;;;;;4962238;29;20028;-83
2022/09/27 00:42:57;;;;;;;12.80;2.97;;;13.90;99.90;;;;;;4960897;28;20319;-82
2022/09/27 00:45:23;;;;;;;25.45;4.05;;;13.90;99.90;;;;;;4963132;29;20027;-83
2022/09/27 00:47:55;;;;;;;18.40;3.05;;;14.00;99.90;;;;;;4963444;29;20058;-83
2022/09/27 00:50:34;;;;;;;16.77;3.53;;;14.00;99.90;;;;;;4963314;29;20015;-83
2022/09/27 00:53:18;;;;;;;16.55;2.75;;;14.00;99.90;;;;;;4959627;28;20031;-83
2022/09/27 00:55:56;;;;;;;17.03;3.20;;;14.00;99.90;;;;;;4963136;29;20163;-85
2022/09/27 00:58:30;;;;;;;15.68;2.75;;;14.00;99.90;;;;;;4957141;29;20310;-85
2022/09/27 01:01:00;;;;;;;14.98;2.30;;;14.00;99.90;;;;;;4960027;29;20040;-85
2022/09/27 01:03:46;;;;;;;18.13;3.35;;;14.00;99.90;;;;;;4963633;29;20314;-85
2022/09/27 01:06:13;;;;;;;18.98;2.70;;;14.00;99.90;;;;;;4963427;29;20415;-85
2022/09/27 01:08:39;;;;;;;14.65;2.65;;;14.10;99.90;;;;;;4960667;29;20111;-85
2022/09/27 01:11:34;;;;;;;17.00;2.78;;;14.10;99.90;;;;;;4968609;28;20019;-85
2022/09/27 01:14:18;;;;;;;19.17;2.78;;;14.10;99.90;;;;;;4957350;29;20027;-85
2022/09/27 01:17:00;;;;;;;23.80;3.35;;;14.00;99.90;;;;;;4962858;28;20067;-83
2022/09/27 01:19:44;;;;;;;17.40;2.72;;;14.00;99.90;;;;;;4963371;29;20054;-83
2022/09/27 01:22:44;;;;;;;14.93;2.40;;;14.10;99.90;;;;;;4946059;29;20023;-83
2022/09/27 01:25:41;;;;;;;20.83;2.75;;;14.10;99.90;;;;;;4943445;29;20135;-83
2022/09/27 01:28:31;;;;;;;19.20;3.25;;;14.10;99.90;;;;;;4962447;29;20086;-83
2022/09/27 01:31:00;;;;;;;17.23;2.97;;;14.10;99.90;;;;;;4960416;29;20027;-83
2022/09/27 01:33:48;;;;;;;16.92;2.85;;;14.10;99.90;;;;;;4961521;29;20027;-83
2022/09/27 01:36:26;;;;;;;18.48;2.75;;;14.10;99.90;;;;;;4956050;29;20318;-82
2022/09/27 01:39:00;;;;;;;20.23;2.65;;;14.10;99.90;;;;;;4961464;29;20020;-83
2022/09/27 01:41:35;;;;;;;16.88;2.47;;;14.10;99.90;;;;;;4961907;29;20049;-82
2022/09/27 01:44:03;;;;;;;18.13;2.92;;;14.10;99.90;;;;;;4961487;29;20204;-82
2022/09/27 01:46:50;;;;;;;19.05;3.55;;;14.10;99.90;;;;;;4960942;29;20042;-83
2022/09/27 01:49:21;;;;;;;16.58;3.38;;;14.10;99.90;;;;;;4961374;29;20026;-83
2022/09/27 01:51:54;;;;;;;15.57;2.60;;;14.10;99.90;;;;;;4955504;29;20022;-83
2022/09/27 01:54:26;;;;;;;23.75;3.30;;;14.20;99.90;;;;;;4965167;29;20219;-82
2022/09/27 01:56:55;;;;;;;15.25;1.98;;;14.10;99.90;;;;;;4966897;29;20031;-83
2022/09/27 01:59:39;;;;;;;15.70;2.35;;;14.10;99.90;;;;;;4965313;29;20043;-83
2022/09/27 02:02:10;;;;;;;16.00;2.92;;;14.10;99.90;;;;;;4962945;29;20015;-84
2022/09/27 02:04:39;;;;;;;14.65;2.60;;;14.10;99.90;;;;;;4962382;29;20033;-84
2022/09/27 02:07:17;;;;;;;19.45;3.47;;;14.20;99.90;;;;;;4962102;29;20042;-83
2022/09/27 02:09:55;;;;;;;17.80;2.97;;;14.10;99.90;;;;;;4962621;29;20011;-83
2022/09/27 02:12:24;;;;;;;17.83;2.78;;;14.10;99.90;;;;;;4956668;29;20057;-84
2022/09/27 02:14:56;;;;;;;15.70;2.45;;;14.20;99.90;;;;;;4962783;29;20098;-83
2022/09/27 02:17:33;;;;;;;20.08;2.72;;;14.10;99.90;;;;;;4957440;29;20107;-83
2022/09/27 02:20:02;;;;;;;16.83;2.25;;;14.10;99.90;;;;;;4962535;29;20033;-83
2022/09/27 02:22:36;;;;;;;18.27;2.50;;;14.20;99.90;;;;;;4962544;29;20018;-83
2022/09/27 02:25:25;;;;;;;17.08;3.00;;;14.20;99.90;;;;;;4962574;29;20353;-83
2022/09/27 02:28:11;;;;;;;26.95;2.90;;;14.10;99.90;;;;;;4945406;29;20039;-83
2022/09/27 02:30:37;;;;;;;14.13;2.65;;;14.10;99.90;;;;;;4966266;29;20055;-83
2022/09/27 02:33:03;;;;;;;11.05;2.15;;;14.10;99.90;;;;;;4966335;29;20023;-83
2022/09/27 02:35:32;;;;;;;17.90;2.22;;;14.20;99.90;;;;;;4966122;29;20011;-83
2022/09/27 02:37:58;;;;;;;16.67;3.17;;;14.20;99.90;;;;;;4966153;29;20295;-83
2022/09/27 02:40:30;;;;;;;12.43;2.00;;;14.20;99.90;;;;;;4966042;29;20058;-82
2022/09/27 02:42:56;;;;;;;16.83;2.78;;;14.20;99.90;;;;;;4965814;29;20031;-83
2022/09/27 02:45:25;;;;;;;13.02;2.00;;;14.20;99.90;;;;;;4965675;29;20019;-82
2022/09/27 02:48:02;;;;;;;14.70;2.45;;;14.20;99.90;;;;;;4948610;29;20019;-83
2022/09/27 02:50:28;;;;;;;15.38;2.63;;;14.20;99.90;;;;;;4965954;29;20086;-83
2022/09/27 02:53:18;;;;;;;13.38;2.55;;;14.20;99.90;;;;;;4964668;29;20031;-83
2022/09/27 02:55:56;;;;;;;19.65;2.63;;;14.10;99.90;;;;;;4964760;29;20050;-83
2022/09/27 02:59:00;;;;;;;13.27;2.38;;;14.10;99.90;;;;;;4965052;29;20047;-83
2022/09/27 03:02:00;;;;;;;15.50;2.10;;;14.10;99.90;;;;;;4963723;29;20046;-82
2022/09/27 03:04:30;;;;;;;14.32;2.20;;;14.00;99.90;;;;;;4973585;28;20089;-83
2022/09/27 03:06:58;;;;;;;15.55;1.95;;;14.00;99.90;;;;;;4962374;28;20098;-82
2022/09/27 03:09:28;;;;;;;15.55;2.25;;;14.00;99.90;;;;;;4963899;29;20071;-83
2022/09/27 03:11:54;;;;;;;13.05;2.28;;;14.00;99.90;;;;;;4964064;29;20027;-83
2022/09/27 03:14:20;;;;;;;12.82;2.03;;;14.00;99.90;;;;;;4964469;29;20242;-83
2022/09/27 03:16:46;;;;;;;13.40;2.75;;;14.00;99.90;;;;;;4963789;29;20330;-83
2022/09/27 03:19:12;;;;;;;15.77;2.38;;;13.90;99.90;;;;;;4964322;29;20038;-84
2022/09/27 03:21:38;;;;;;;17.63;2.25;;;13.90;99.90;;;;;;4965050;29;20031;-83
2022/09/27 03:24:04;;;;;;;22.48;3.65;;;13.90;99.90;;;;;;4964396;29;20298;-83
2022/09/27 03:26:30;;;;;;;19.67;2.72;;;13.80;99.90;;;;;;4964708;29;20039;-83
2022/09/27 03:28:56;;;;;;;15.88;1.80;;;13.90;99.90;;;;;;4964907;29;20068;-83
2022/09/27 03:31:22;;;;;;;14.07;2.42;;;13.80;99.90;;;;;;4964373;29;20034;-83
2022/09/27 03:33:47;;;;;;;11.05;1.83;;;13.80;99.90;;;;;;4973688;28;20259;-83
2022/09/27 03:36:13;;;;;;;18.60;2.35;;;13.80;99.90;;;;;;4965120;29;20011;-84
2022/09/27 03:38:39;;;;;;;10.95;2.40;;;13.80;99.90;;;;;;4964960;29;20090;-83
2022/09/27 03:41:05;;;;;;;17.55;2.38;;;13.70;99.90;;;;;;4964453;28;20019;-83
2022/09/27 03:43:30;;;;;;;22.02;2.40;;;13.70;99.90;;;;;;4964957;29;20051;-84
2022/09/27 03:45:56;;;;;;;13.15;2.10;;;13.60;99.90;;;;;;4964733;29;20062;-83
2022/09/27 03:48:22;;;;;;;20.92;2.20;;;13.60;99.90;;;;;;4964959;29;20023;-83
2022/09/27 03:50:50;;;;;;;14.23;2.33;;;13.60;99.90;;;;;;4971449;28;20015;-83
2022/09/27 03:53:16;;;;;;;16.98;2.35;;;13.60;99.90;;;;;;4964769;29;20023;-82
2022/09/27 03:55:45;;;;;;;15.98;2.70;;;13.70;99.90;;;;;;4964368;29;20027;-82
2022/09/27 03:58:11;;;;;;;15.88;2.50;;;13.70;99.90;;;;;;4964094;29;20039;-83
2022/09/27 04:00:36;;;;;;;15.63;2.10;;;13.60;99.90;;;;;;4964374;29;20090;-82
2022/09/27 04:03:03;;;;;;;20.98;2.88;;;13.60;99.90;;;;;;4963984;29;20027;-83
2022/09/27 04:05:29;;;;;;;17.08;2.42;;;13.70;99.90;;;;;;4963384;29;20023;-82
2022/09/27 04:07:55;;;;;;;17.15;2.30;;;13.60;99.90;;;;;;4945570;29;20039;-82
2022/09/27 04:10:20;;;;;;;14.45;1.75;;;13.60;99.90;;;;;;4963949;29;20020;-83
2022/09/27 04:12:46;;;;;;;14.65;2.60;;;13.50;99.90;;;;;;4963167;29;20027;-82
2022/09/27 04:15:12;;;;;;;20.10;2.55;;;13.60;99.90;;;;;;4962482;29;20031;-83
2022/09/27 04:17:41;;;;;;;17.13;2.42;;;13.50;99.90;;;;;;4962916;29;20102;-83
2022/09/27 04:20:08;;;;;;;19.58;3.03;;;13.50;99.90;;;;;;4962663;29;20023;-83
2022/09/27 04:22:34;;;;;;;14.80;2.38;;;13.60;99.90;;;;;;4963453;29;20208;-83
2022/09/27 04:24:59;;;;;;;17.85;2.67;;;13.50;99.90;;;;;;4963787;29;20030;-83
2022/09/27 04:27:25;;;;;;;22.95;2.67;;;13.50;99.90;;;;;;4964019;29;20031;-83
2022/09/27 04:29:51;;;;;;;18.42;2.80;;;13.50;99.90;;;;;;4964135;29;20019;-83
2022/09/27 04:32:17;;;;;;;18.38;2.33;;;13.50;99.90;;;;;;4964026;29;20115;-83
2022/09/27 04:37:27;;;;;;;17.85;2.50;;;13.50;99.90;;;;;;4964032;29;20251;-83
2022/09/27 04:39:52;;;;;;;18.00;3.20;;;13.60;99.90;;;;;;4963959;29;20023;-83
2022/09/27 04:42:18;;;;;;;14.85;3.00;;;13.60;99.90;;;;;;4963836;29;20345;-82
2022/09/27 04:44:44;;;;;;;19.42;2.67;;;13.50;99.90;;;;;;4963894;29;20644;-83
2022/09/27 04:47:10;;;;;;;16.23;2.25;;;13.50;99.90;;;;;;4963402;29;20323;-83
2022/09/27 04:49:37;;;;;;;17.77;2.17;;;13.50;99.90;;;;;;4963756;29;20031;-83
2022/09/27 04:52:04;;;;;;;16.10;2.45;;;13.50;99.90;;;;;;4962972;28;20015;-83
2022/09/27 04:54:29;;;;;;;17.45;2.35;;;13.50;99.90;;;;;;4961300;29;20015;-83
2022/09/27 04:56:55;;;;;;;16.60;2.70;;;13.60;99.90;;;;;;4963510;29;20090;-83
2022/09/27 04:59:21;;;;;;;15.63;2.78;;;13.60;99.90;;;;;;4963512;29;20070;-83
2022/09/27 05:01:48;;;;;;;15.63;2.08;;;13.60;99.90;;;;;;4963655;29;20031;-82
2022/09/27 05:04:14;;;;;;;19.50;2.53;;;13.60;99.90;;;;;;4963385;29;20023;-83
2022/09/27 05:06:39;;;;;;;13.43;2.58;;;13.60;99.90;;;;;;4966299;28;20033;-83
2022/09/27 05:09:05;;;;;;;14.07;2.42;;;13.60;99.90;;;;;;4963294;29;20035;-84
2022/09/27 05:11:31;;;;;;;23.38;2.08;;;13.60;99.90;;;;;;4971079;28;20034;-83
2022/09/27 05:13:57;;;;;;;16.67;1.92;;;13.60;99.90;;;;;;4959072;29;20107;-83
2022/09/27 05:16:23;;;;;;;14.70;2.10;;;13.60;99.90;;;;;;4962783;29;20030;-83
2022/09/27 05:18:49;;;;;;;18.70;2.55;;;13.60;99.90;;;;;;4947331;29;20038;-83
2022/09/27 05:21:15;;;;;;;17.40;2.55;;;13.60;99.90;;;;;;4963334;29;20023;-83
2022/09/27 05:23:41;;;;;;;13.98;2.05;;;13.70;99.90;;;;;;4966098;28;20056;-83
2022/09/27 05:26:07;;;;;;;14.75;2.05;;;13.80;99.90;;;;;;4963773;29;20334;-84
2022/09/27 05:28:36;;;;;;;10.98;2.15;;;13.80;99.90;;;;;;4964858;29;20031;-83
2022/09/27 05:31:02;;;;;;;15.43;2.70;;;13.80;99.90;;;;;;4963319;29;20079;-84
2022/09/27 05:33:28;;;;;;;11.70;2.13;;;13.90;99.90;;;;;;4963023;29;20019;-82
2022/09/27 05:35:55;;;;;;;8.70;1.70;;;14.00;99.90;;;;;;4963175;29;20053;-80
2022/09/27 05:38:21;;;;;;;9.82;1.85;;;14.00;99.90;;;;;;4963299;29;20015;-81
2022/09/27 05:40:49;;;;;;;13.38;1.50;;;14.10;99.90;;;;;;4962962;29;20015;-82
2022/09/27 05:43:16;;;;;;;8.43;1.33;;;14.20;99.90;;;;;;4963061;29;20050;-81
2022/09/27 05:45:42;;;;;;;9.35;1.50;;;14.20;99.90;;;;;;4962856;29;20012;-81
2022/09/27 05:48:11;;;;;;;10.48;2.05;;;14.30;99.90;;;;;;4962895;29;20039;-80
2022/09/27 05:50:37;;;;;;;6.97;1.25;;;14.30;99.90;;;;;;4965363;28;20071;-80
2022/09/27 05:53:03;;;;;;;8.93;1.42;;;14.30;99.90;;;;;;4966533;28;20266;-81
2022/09/27 05:55:29;;;;;;;14.10;1.05;;;14.30;99.90;;;;;;4963012;29;20023;-81
2022/09/27 05:58:00;;;;;;;13.88;2.00;;;14.40;99.90;;;;;;4962734;29;20317;-82
2022/09/27 06:00:27;;;;;;;8.45;1.52;;;14.50;99.90;;;;;;4949288;29;20050;-82
2022/09/27 06:02:57;;;;;;;8.68;1.20;;;14.50;99.90;;;;;;4963880;28;20026;-81
2022/09/27 06:05:25;;;;;;;9.70;1.13;;;14.50;99.90;;;;;;4966714;29;20023;-81
2022/09/27 06:07:56;;;;;;;5.28;1.10;;;14.50;99.90;;;;;;4966810;29;20070;-82
2022/09/27 06:10:22;;;;;;;8.18;1.73;;;14.60;99.90;;;;;;4963701;29;20026;-82
2022/09/27 06:12:49;;;;;;;7.53;1.63;;;14.60;99.90;;;;;;4966559;29;20223;-81
2022/09/27 06:15:15;;;;;;;9.77;1.30;;;14.60;99.90;;;;;;4966535;29;20030;-81
2022/09/27 06:17:40;;;;;;;11.45;1.50;;;14.60;99.90;;;;;;4966628;29;20046;-80
2022/09/27 06:20:08;;;;;;;11.13;2.30;;;14.70;99.90;;;;;;4965449;29;20281;-80
2022/09/27 06:22:35;;;;;;;13.35;1.75;;;14.70;99.90;;;;;;4965339;29;20299;-80
2022/09/27 06:25:02;;;;;;;13.35;1.67;;;14.70;99.90;;;;;;4964942;29;20027;-81
2022/09/27 06:27:31;;;;;;;11.10;1.85;;;14.80;99.90;;;;;;4947611;29;20039;-81
2022/09/27 06:29:57;;;;;;;13.32;1.95;;;14.90;99.90;;;;;;4965563;29;20027;-81
2022/09/27 06:32:23;;;;;;;10.95;2.00;;;14.90;99.90;;;;;;4965213;29;20038;-81
2022/09/27 06:34:49;;;;;;;11.63;2.03;;;15.00;99.90;;;;;;4965827;29;20027;-80
2022/09/27 06:37:15;;;;;;;13.07;2.38;;;15.00;99.90;;;;;;4965266;29;20279;-81
2022/09/27 06:39:41;;;;;;;12.93;1.60;;;15.00;99.90;;;;;;4965551;29;20099;-84
2022/09/27 06:42:07;;;;;;;8.20;2.13;;;15.10;99.90;;;;;;4963613;29;20019;-82
2022/09/27 06:44:33;;;;;;;11.77;2.38;;;15.10;99.90;;;;;;4954187;29;20034;-83
2022/09/27 06:46:59;;;;;;;12.50;2.40;;;15.10;99.90;;;;;;4962056;29;20039;-83
2022/09/27 06:49:25;;;;;;;10.45;1.77;;;15.20;99.90;;;;;;4962058;29;20250;-84
2022/09/27 06:51:51;;;;;;;12.32;2.00;;;15.20;99.90;;;;;;4960475;29;20030;-83
2022/09/27 06:54:17;;;;;;;11.75;1.73;;;15.30;99.90;;;;;;4958652;29;20104;-83
2022/09/27 06:56:46;;;;;;;12.27;1.92;;;15.30;99.90;;;;;;4955894;29;20036;-83
2022/09/27 07:01:56;;;;;;;10.50;1.88;;;15.20;99.90;;;;;;4954554;29;20034;-83
2022/09/27 07:04:22;;;;;;;13.60;1.80;;;15.20;99.90;;;;;;4956253;29;20031;-84
2022/09/27 07:06:48;;;;;;;9.77;2.53;;;15.20;99.90;;;;;;4954001;29;20034;-84
2022/09/27 07:09:14;;;;;;;7.55;1.70;;;15.20;99.90;;;;;;4956439;29;20248;-84
2022/09/27 07:11:43;;;;;;;11.18;1.55;;;15.20;99.90;;;;;;4959282;29;20032;-83
2022/09/27 07:14:09;;;;;;;13.95;1.63;;;15.20;99.90;;;;;;4956189;28;20051;-85
2022/09/27 07:16:35;;;;;;;13.80;2.28;;;15.30;99.90;;;;;;4955733;29;20035;-85
2022/09/27 07:19:01;;;;;;;9.43;1.67;;;15.30;99.90;;;;;;4969061;28;20031;-83
2022/09/27 07:21:27;;;;;;;9.30;1.92;;;15.40;99.90;;;;;;4955494;29;20559;-84
2022/09/27 07:23:53;;;;;;;12.93;3.33;;;15.40;99.90;;;;;;4961092;29;20038;-80
2022/09/27 07:26:19;;;;;;;11.95;2.13;;;15.40;99.90;;;;;;4963857;29;20031;-81
2022/09/27 07:28:45;;;;;;;8.70;1.63;;;15.50;99.90;;;;;;4957824;29;20192;-80
2022/09/27 07:31:11;;;;;;;7.45;1.80;;;15.60;99.90;;;;;;4947329;29;20030;-82
2022/09/27 07:33:38;;;;;;;9.15;1.52;;;15.60;99.90;;;;;;4964626;29;20046;-80
2022/09/27 07:36:09;;;;;;;19.42;2.33;;;15.70;99.90;;;;;;4964142;29;20015;-80
2022/09/27 07:38:35;;;;;;;8.52;1.98;;;15.70;99.90;;;;;;4963301;29;20063;-79
2022/09/27 07:41:13;;;;;;;8.23;1.80;;;15.80;99.90;;;;;;4963525;29;20310;-80
2022/09/27 07:43:40;;;;;;;11.35;2.15;;;15.90;99.90;;;;;;4963197;29;20098;-81
2022/09/27 07:46:06;;;;;;;13.85;1.48;;;16.00;99.90;;;;;;4959939;29;20094;-80
2022/09/27 07:48:33;;;;;;;8.27;2.03;;;16.00;99.90;;;;;;4963814;29;20030;-79
2022/09/27 07:50:59;;;;;;;11.38;2.33;;;16.00;99.90;;;;;;4963565;29;20019;-80
2022/09/27 07:53:24;;;;;;;9.65;1.90;;;16.00;99.90;;;;;;4964273;29;20054;-80
2022/09/27 07:55:52;;;;;;;12.10;1.92;;;16.10;99.90;;;;;;4964242;29;20015;-80
2022/09/27 07:58:19;;;;;;;9.05;1.80;;;16.10;99.90;;;;;;4963972;29;20170;-85
2022/09/27 08:00:45;;;;;;;10.77;2.20;;;16.10;99.90;;;;;;4963433;29;20027;-79
2022/09/27 08:03:16;;;;;;;11.73;2.20;;;16.10;99.90;;;;;;4964745;29;20065;-79
2022/09/27 08:05:46;;;;;;;9.95;2.03;;;16.20;99.90;;;;;;4962590;29;20031;-84
2022/09/27 08:08:13;;;;;;;9.60;1.73;;;16.20;99.90;;;;;;4946734;29;20023;-79
2022/09/27 08:10:43;;;;;;;11.48;1.92;;;16.10;99.90;;;;;;4962650;29;20026;-79
2022/09/27 08:13:13;;;;;;;8.65;2.00;;;16.10;99.90;;;;;;4946688;29;20069;-79
2022/09/27 08:15:39;;;;;;;7.10;1.63;;;16.10;99.90;;;;;;4963722;29;20043;-80
2022/09/27 08:18:08;;;;;;;5.90;1.38;;;16.10;99.90;;;;;;4963639;29;20027;-79
2022/09/27 08:20:34;;;;;;;10.90;1.90;;;16.10;99.90;;;;;;4962748;29;20023;-79
2022/09/27 08:23:01;;;;;;;8.23;1.42;;;16.10;99.90;;;;;;4963062;29;20030;-79
2022/09/27 08:25:29;;;;;;;9.52;1.90;;;16.10;99.90;;;;;;4962977;28;20022;-79
2022/09/27 08:28:00;;;;;;;7.10;1.42;;;16.20;99.90;;;;;;4962218;29;20338;-80
2022/09/27 08:30:30;;;;;;;10.35;1.80;;;16.10;99.90;;;;;;4962044;29;20023;-79
2022/09/27 08:32:57;;;;;;;9.85;2.05;;;16.10;99.90;;;;;;4962695;29;20047;-80
2022/09/27 08:35:23;;;;;;;6.50;1.23;;;16.00;99.90;;;;;;4963122;29;20019;-79
2022/09/27 08:37:59;;;;;;;13.70;1.77;;;16.10;99.90;;;;;;4962544;29;20131;-79
2022/09/27 08:40:36;;;;;;;8.75;1.50;;;16.10;99.90;;;;;;4959939;29;20360;-79
2022/09/27 08:43:14;;;;;;;11.90;1.70;;;16.30;99.90;;;;;;4952026;28;20251;-79
2022/09/27 08:46:12;;;;;;;10.95;1.30;;;16.40;99.90;;;;;;4960549;29;20052;-79
2022/09/27 08:48:39;;;;;;;9.43;1.27;;;16.60;99.90;;;;;;4943192;29;20043;-83
2022/09/27 08:51:09;;;;;;;6.22;1.23;;;16.70;99.90;;;;;;4959695;29;20054;-80
2022/09/27 08:53:38;;;;;;;7.75;1.52;;;16.80;99.90;;;;;;4956408;29;20047;-79
2022/09/27 08:56:07;;;;;;;17.40;2.33;;;16.80;99.90;;;;;;4958159;29;20204;-78
2022/09/27 08:58:48;;;;;;;10.30;2.30;;;16.70;99.90;;;;;;4961757;29;20040;-77
2022/09/27 09:01:15;;;;;;;14.32;2.00;;;16.60;99.90;;;;;;4961627;29;20192;-78
2022/09/27 09:03:54;;;;;;;17.15;2.95;;;16.60;99.90;;;;;;4957256;29;20034;-80
2022/09/27 09:06:38;;;;;;;11.40;2.50;;;16.70;99.90;;;;;;4962702;29;20039;-79
2022/09/27 09:09:23;;;;;;;12.75;4.40;;;16.80;99.90;;;;;;4957999;29;20514;-80
2022/09/27 09:15:14;;;;;;;10.70;1.98;;;17.20;99.90;;;;;;4962934;29;20054;-80
2022/09/27 09:17:58;;;;;;;10.85;1.60;;;17.50;99.90;;;;;;4954847;28;20062;-79
2022/09/27 09:20:34;;;;;;;10.75;1.60;;;17.60;99.90;;;;;;4962962;29;20035;-79
2022/09/27 09:23:20;;;;;;;12.52;1.88;;;17.40;99.90;;;;;;4956422;29;20061;-82
2022/09/27 09:26:00;;;;;;;9.77;1.90;;;17.40;99.90;;;;;;4935643;28;20035;-84
2022/09/27 09:28:52;;;;;;;10.13;1.90;;;17.50;99.90;;;;;;4953876;29;20086;-84
2022/09/27 09:31:32;;;;;;;10.00;1.90;;;17.50;99.90;;;;;;4952330;29;20086;-85
2022/09/27 09:34:00;;;;;;;12.38;1.80;;;17.50;99.90;;;;;;4954017;29;20370;-85
2022/09/27 09:36:55;;;;;;;10.90;2.40;;;17.60;99.90;;;;;;4954690;29;20031;-86
2022/09/27 09:39:32;;;;;;;12.98;1.70;;;17.70;99.90;;;;;;4957526;29;20058;-86
2022/09/27 09:42:12;;;;;;;14.27;2.03;;;17.80;99.90;;;;;;4938921;29;20054;-85
2022/09/27 09:44:59;;;;;;;12.82;2.80;;;17.60;99.90;;;;;;4946910;29;20038;-84
2022/09/27 09:47:30;;;;;;;10.88;2.20;;;17.40;99.90;;;;;;4954636;29;20038;-84
2022/09/27 09:50:12;;;;;;;10.82;2.15;;;17.30;99.90;;;;;;4963046;29;20023;-84
2022/09/27 09:52:50;;;;;;;23.55;4.05;;;17.30;99.90;;;;;;4956118;28;20435;-86
2022/09/27 09:55:35;;;;;;;18.63;3.35;;;17.30;99.90;;;;;;4956568;29;20023;-84
2022/09/27 09:58:04;;;;;;;17.67;3.85;;;17.30;99.90;;;;;;4954703;29;20058;-84
2022/09/27 10:00:30;;;;;;;18.60;3.63;;;17.30;99.90;;;;;;4962558;29;20035;-85
2022/09/27 10:02:59;;;;;;;19.92;3.15;;;17.20;99.90;;;;;;4956237;29;20102;-82
2022/09/27 10:05:26;;;;;;;18.67;2.70;;;17.20;99.90;;;;;;4956074;29;20620;-85
2022/09/27 10:07:56;;;;;;;18.42;3.33;;;17.10;99.90;;;;;;4952066;29;20062;-82
2022/09/27 10:10:22;;;;;;;21.92;3.35;;;17.30;99.90;;;;;;4949705;29;20019;-85
2022/09/27 10:12:49;;;;;;;23.92;3.85;;;17.50;99.90;;;;;;4956572;28;20035;-81
2022/09/27 10:15:20;;;;;;;16.30;2.78;;;17.60;99.90;;;;;;4951834;29;20101;-80
2022/09/27 10:17:55;;;;;;;17.55;3.17;;;17.80;99.90;;;;;;4953441;29;20094;-91
2022/09/27 10:20:31;;;;;;;19.35;3.40;;;17.80;99.90;;;;;;4952015;29;20525;-80
2022/09/27 10:23:20;;;;;;;16.63;3.28;;;17.70;99.90;;;;;;4952070;29;20137;-80
2022/09/27 10:26:01;;;;;;;21.85;3.78;;;17.80;99.90;;;;;;4946587;29;20058;-80
2022/09/27 10:28:36;;;;;;;19.02;3.75;;;17.90;99.90;;;;;;4951632;29;20038;-80
2022/09/27 10:31:07;;;;;;;18.38;3.53;;;18.10;99.90;;;;;;4951423;29;20110;-79
2022/09/27 10:33:49;;;;;;;25.63;4.22;;;18.00;99.90;;;;;;4951222;29;20031;-80
2022/09/27 10:36:35;;;;;;;21.60;4.10;;;18.10;99.90;;;;;;4951366;29;20031;-81
2022/09/27 10:39:04;;;;;;;27.10;4.72;;;18.10;99.90;;;;;;4950884;29;20039;-80
2022/09/27 10:41:40;;;;;;;21.40;3.60;;;18.10;99.90;;;;;;4952174;29;20030;-81
2022/09/27 10:44:15;;;;;;;26.58;5.28;;;18.00;99.90;;;;;;4951893;29;20031;-80
2022/09/27 10:46:48;;;;;;;23.98;4.57;;;17.90;99.90;;;;;;4951514;29;20032;-80
2022/09/27 10:49:29;;;;;;;21.95;4.35;;;17.90;99.90;;;;;;4953246;28;20099;-81
2022/09/27 10:52:07;;;;;;;16.98;3.75;;;18.00;99.90;;;;;;4954347;29;20031;-81
2022/09/27 10:54:36;;;;;;;23.63;4.78;;;17.90;99.90;;;;;;4954958;29;20087;-81
2022/09/27 10:57:19;;;;;;;20.05;3.50;;;17.90;99.90;;;;;;4941629;29;20127;-82
2022/09/27 10:59:52;;;;;;;27.20;4.53;;;18.00;99.90;;;;;;4951484;29;20053;-81
2022/09/27 11:02:32;;;;;;;27.70;4.20;;;18.10;99.90;;;;;;4955551;29;20114;-93
2022/09/27 11:05:37;;;;;;;28.27;5.07;;;18.10;99.90;;;;;;4956927;29;20381;-83
2022/09/27 11:08:31;;;;;;;23.15;4.10;;;18.10;99.90;;;;;;4964270;28;20310;-85
2022/09/27 11:11:15;;;;;;;21.30;3.90;;;18.20;99.90;;;;;;4949075;29;20030;-86
2022/09/27 11:14:11;;;;;;;22.35;4.22;;;18.20;99.90;;;;;;4954414;29;20031;-87
2022/09/27 11:17:07;;;;;;;21.88;3.97;;;18.40;99.90;;;;;;4941147;29;20040;-89
2022/09/27 11:20:18;;;;;;;20.83;4.10;;;18.60;99.90;;;;;;4951501;29;20035;-87
2022/09/27 11:23:03;;;;;;;21.55;3.53;;;18.70;99.90;;;;;;4927291;29;20035;-86
2022/09/27 11:25:55;;;;;;;22.45;4.47;;;18.90;99.90;;;;;;4949699;28;20489;-86
2022/09/27 11:28:30;;;;;;;21.27;3.70;;;19.20;99.50;;;;;;4949153;29;20042;-85
2022/09/27 11:31:26;;;;;;;24.13;4.15;;;19.20;99.20;;;;;;4952886;29;20027;-86
2022/09/27 11:34:15;;;;;;;21.65;4.15;;;19.30;99.30;;;;;;4929028;29;20043;-86
2022/09/27 11:37:05;;;;;;;24.48;3.75;;;19.20;99.40;;;;;;4950245;29;20034;-87
2022/09/27 11:40:11;;;;;;;21.90;4.53;;;19.30;99.20;;;;;;4953907;29;20598;-86
2022/09/27 11:42:48;;;;;;;30.83;4.90;;;19.00;99.20;;;;;;4953619;29;20031;-85
2022/09/27 11:45:30;;;;;;;28.27;4.78;;;19.10;99.90;;;;;;4953819;29;20054;-86
2022/09/27 11:48:28;;;;;;;23.02;4.60;;;19.30;99.40;;;;;;4947678;29;20519;-85
2022/09/27 11:51:10;;;;;;;24.77;4.57;;;19.10;99.80;;;;;;4953295;29;20020;-86
2022/09/27 11:53:55;;;;;;;29.77;4.15;;;19.20;99.90;;;;;;4953489;29;20078;-85
2022/09/27 11:56:38;;;;;;;25.95;4.57;;;19.20;99.90;;;;;;4948815;29;20027;-85
2022/09/27 11:59:30;;;;;;;24.45;4.65;;;19.00;99.90;;;;;;4953065;29;20054;-85
2022/09/27 12:02:05;;;;;;;23.00;4.85;;;18.80;99.90;;;;;;4947581;29;20024;-85
2022/09/27 12:04:46;;;;;;;24.10;4.50;;;18.80;99.90;;;;;;4953272;29;20027;-85
2022/09/27 12:07:20;;;;;;;20.50;4.28;;;19.00;99.90;;;;;;4950263;29;20046;-85
2022/09/27 12:09:48;;;;;;;;;;;19.20;99.90;;;;;;4953721;29;20636;-86
2022/09/27 12:12:22;;;;;;;27.08;4.78;;;19.40;99.90;;;;;;4952946;29;20372;-86
2022/09/27 12:15:05;;;;;;;26.30;5.05;;;19.30;99.90;;;;;;4952840;29;20478;-88
2022/09/27 12:17:41;;;;;;;21.77;4.35;;;19.20;99.90;;;;;;4946961;29;20575;-86
2022/09/27 12:20:16;;;;;;;24.73;5.30;;;19.10;99.90;;;;;;4952972;29;20488;-86
2022/09/27 12:22:53;;;;;;;25.80;4.68;;;19.20;99.90;;;;;;4953320;29;20475;-85
2022/09/27 12:25:21;;;;;;;28.30;4.40;;;19.40;99.90;;;;;;4952897;29;20038;-86
2022/09/27 12:28:17;;;;;;;23.13;4.65;;;19.20;99.90;;;;;;4935610;29;20134;-86
2022/09/27 12:30:53;;;;;;;30.60;4.75;;;18.90;99.90;;;;;;4935411;29;20238;-85
2022/09/27 12:33:34;;;;;;;34.55;5.13;;;18.50;99.90;;;;;;4935372;29;20039;-85
2022/09/27 12:36:06;;;;;;;26.45;4.13;;;18.30;99.90;;;;;;4932624;29;20492;-87
2022/09/27 12:38:56;;;;;;;28.55;5.03;;;18.30;99.90;;;;;;4952820;29;20054;-86
2022/09/27 12:41:25;;;;;;;30.67;5.80;;;18.30;99.90;;;;;;4946684;29;20095;-86
2022/09/27 12:43:50;;;;;;;28.10;5.18;;;18.30;99.90;;;;;;4961343;28;20031;-86
2022/09/27 12:46:21;;;;;;;35.60;6.13;;;18.40;99.90;;;;;;4936152;29;20046;-85
2022/09/27 12:48:59;;;;;;;30.27;5.10;;;18.50;99.90;;;;;;4947060;29;20029;-87
2022/09/27 12:51:45;;;;;;;33.05;5.35;;;18.70;99.90;;;;;;4952678;29;20034;-86
2022/09/27 12:54:31;;;;;;;29.67;5.22;;;18.90;99.90;;;;;;4958259;28;20034;-85
2022/09/27 12:56:59;;;;;;;34.75;6.55;;;19.10;99.90;;;;;;4939172;29;20031;-85
2022/09/27 12:59:47;;;;;;;25.30;5.80;;;19.10;99.90;;;;;;4962103;28;20039;-85
2022/09/27 13:02:38;;;;;;;33.55;6.50;;;19.30;99.90;;;;;;4933337;29;20031;-86
2022/09/27 13:05:26;;;;;;;33.03;5.53;;;19.80;99.90;;;;;;4935992;28;20106;-85
2022/09/27 13:07:54;;;;;;;34.28;6.18;;;19.90;99.90;;;;;;4952371;29;20519;-85
2022/09/27 13:11:07;;;;;;;30.85;6.00;;;19.90;99.90;;;;;;4951943;29;20491;-86
2022/09/27 13:13:34;;;;;;;37.70;6.40;;;20.10;99.90;;;;;;4946375;28;20047;-85
2022/09/27 13:16:01;;;;;;;29.30;5.90;;;20.50;99.90;;;;;;4955303;28;20106;-87